sensor_id;sensor_type;location;lat;lon;timestamp;pressure;altitude;pressure_sealevel;temperature;humidity
51986;BME280;38002;53.296;6.600;2022-12-18T00:04:48;103093.88;;;-3.86;96.54
51986;BME280;38002;53.296;6.600;2022-12-18T00:09:49;103084.16;;;-3.91;96.25
51986;BME280;38002;53.296;6.600;2022-12-18T00:14:49;103094.84;;;-3.93;96.33
51986;BME280;38002;53.296;6.600;2022-12-18T00:19:49;103088.63;;;-3.93;96.21
51986;BME280;38002;53.296;6.600;2022-12-18T00:24:50;103089.56;;;-3.97;96.43
51986;BME280;38002;53.296;6.600;2022-12-18T00:29:50;103087.78;;;-3.98;96.22
51986;BME280;38002;53.296;6.600;2022-12-18T00:34:51;103089.59;;;-4.02;95.82
51986;BME280;38002;53.296;6.600;2022-12-18T00:39:51;103106.44;;;-4.03;96.09
51986;BME280;38002;53.296;6.600;2022-12-18T00:44:52;103110.88;;;-4.02;95.70
51986;BME280;38002;53.296;6.600;2022-12-18T00:49:52;103101.13;;;-4.01;95.32
51986;BME280;38002;53.296;6.600;2022-12-18T00:54:52;103100.25;;;-4.02;95.34
51986;BME280;38002;53.296;6.600;2022-12-18T00:59:53;103100.28;;;-4.09;94.91
51986;BME280;38002;53.296;6.600;2022-12-18T01:04:53;103087.97;;;-4.15;95.33
51986;BME280;38002;53.296;6.600;2022-12-18T01:09:54;103099.50;;;-4.19;95.17
51986;BME280;38002;53.296;6.600;2022-12-18T01:14:54;103099.50;;;-4.22;95.15
51986;BME280;38002;53.296;6.600;2022-12-18T01:19:54;103103.97;;;-4.24;95.14
51986;BME280;38002;53.296;6.600;2022-12-18T01:24:55;103119.94;;;-4.30;95.16
51986;BME280;38002;53.296;6.600;2022-12-18T01:29:55;103132.38;;;-4.32;94.79
51986;BME280;38002;53.296;6.600;2022-12-18T01:34:56;103139.47;;;-4.33;94.88
51986;BME280;38002;53.296;6.600;2022-12-18T01:39:56;103140.34;;;-4.35;94.88
51986;BME280;38002;53.296;6.600;2022-12-18T01:50:13;103135.97;;;-4.42;94.60
51986;BME280;38002;53.296;6.600;2022-12-18T01:55:18;103138.66;;;-4.45;94.64
51986;BME280;38002;53.296;6.600;2022-12-18T02:00:20;103145.75;;;-4.46;94.77
51986;BME280;38002;53.296;6.600;2022-12-18T02:16:06;103150.22;;;-4.55;94.33
51986;BME280;38002;53.296;6.600;2022-12-18T02:26:45;103144.06;;;-4.57;94.05
51986;BME280;38002;53.296;6.600;2022-12-18T02:31:51;103133.44;;;-4.57;94.12
51986;BME280;38002;53.296;6.600;2022-12-18T02:36:53;103135.25;;;-4.64;93.78
51986;BME280;38002;53.296;6.600;2022-12-18T02:41:54;103122.03;;;-4.72;93.82
51986;BME280;38002;53.296;6.600;2022-12-18T02:46:55;103113.19;;;-4.74;93.97
51986;BME280;38002;53.296;6.600;2022-12-18T02:52:19;103115.88;;;-4.77;93.89
51986;BME280;38002;53.296;6.600;2022-12-18T03:02:44;103122.13;;;-4.91;93.59
51986;BME280;38002;53.296;6.600;2022-12-18T03:07:58;103131.00;;;-4.94;93.79
51986;BME280;38002;53.296;6.600;2022-12-18T03:13:07;103129.22;;;-4.95;93.88
51986;BME280;38002;53.296;6.600;2022-12-18T03:18:22;103136.31;;;-5.00;93.94
51986;BME280;38002;53.296;6.600;2022-12-18T03:23:27;103136.34;;;-5.01;93.65
51986;BME280;38002;53.296;6.600;2022-12-18T03:28:31;103136.34;;;-5.05;93.26
51986;BME280;38002;53.296;6.600;2022-12-18T03:33:47;103129.31;;;-5.10;93.79
51986;BME280;38002;53.296;6.600;2022-12-18T03:38:51;103133.75;;;-5.09;93.86
51986;BME280;38002;53.296;6.600;2022-12-18T03:44:20;103126.66;;;-5.13;93.69
51986;BME280;38002;53.296;6.600;2022-12-18T03:55:00;103129.38;;;-5.19;93.61
51986;BME280;38002;53.296;6.600;2022-12-18T04:00:09;103120.53;;;-5.21;93.52
51986;BME280;38002;53.296;6.600;2022-12-18T04:05:10;103115.25;;;-5.24;93.63
51986;BME280;38002;53.296;6.600;2022-12-18T04:10:11;103121.44;;;-5.28;93.89
51986;BME280;38002;53.296;6.600;2022-12-18T04:15:13;103116.16;;;-5.31;93.56
51986;BME280;38002;53.296;6.600;2022-12-18T04:20:14;103117.03;;;-5.29;94.06
51986;BME280;38002;53.296;6.600;2022-12-18T04:25:14;103117.94;;;-5.33;93.88
51986;BME280;38002;53.296;6.600;2022-12-18T04:30:15;103131.19;;;-5.33;93.50
51986;BME280;38002;53.296;6.600;2022-12-18T04:35:15;103123.22;;;-5.32;93.75
51986;BME280;38002;53.296;6.600;2022-12-18T04:40:15;103123.25;;;-5.36;93.66
51986;BME280;38002;53.296;6.600;2022-12-18T04:45:16;103121.47;;;-5.37;93.46
51986;BME280;38002;53.296;6.600;2022-12-18T04:50:16;103117.97;;;-5.39;93.23
51986;BME280;38002;53.296;6.600;2022-12-18T04:55:17;103119.72;;;-5.41;93.41
51986;BME280;38002;53.296;6.600;2022-12-18T05:00:17;103120.59;;;-5.42;93.32
51986;BME280;38002;53.296;6.600;2022-12-18T05:05:18;103124.16;;;-5.42;93.85
51986;BME280;38002;53.296;6.600;2022-12-18T05:10:18;103125.91;;;-5.41;93.63
51986;BME280;38002;53.296;6.600;2022-12-18T05:15:19;103134.75;;;-5.42;93.86
51986;BME280;38002;53.296;6.600;2022-12-18T05:20:19;103129.44;;;-5.42;93.31
51986;BME280;38002;53.296;6.600;2022-12-18T05:25:20;103128.56;;;-5.39;93.31
51986;BME280;38002;53.296;6.600;2022-12-18T05:30:20;103127.69;;;-5.40;93.29
51986;BME280;38002;53.296;6.600;2022-12-18T05:35:22;103135.66;;;-5.44;93.05
51986;BME280;38002;53.296;6.600;2022-12-18T05:40:22;103139.22;;;-5.53;92.94
51986;BME280;38002;53.296;6.600;2022-12-18T05:45:23;103142.72;;;-5.56;92.73
51986;BME280;38002;53.296;6.600;2022-12-18T05:50:23;103142.72;;;-5.56;92.65
51986;BME280;38002;53.296;6.600;2022-12-18T05:55:24;103151.56;;;-5.54;93.19
51986;BME280;38002;53.296;6.600;2022-12-18T06:00:24;103163.94;;;-5.54;92.96
51986;BME280;38002;53.296;6.600;2022-12-18T06:05:25;103166.63;;;-5.62;92.67
51986;BME280;38002;53.296;6.600;2022-12-18T06:10:25;103172.78;;;-5.69;92.61
51986;BME280;38002;53.296;6.600;2022-12-18T06:15:26;103177.22;;;-5.72;92.43
51986;BME280;38002;53.296;6.600;2022-12-18T06:20:26;103194.91;;;-5.74;92.53
51986;BME280;38002;53.296;6.600;2022-12-18T06:25:27;103193.13;;;-5.80;92.72
51986;BME280;38002;53.296;6.600;2022-12-18T06:30:27;103193.13;;;-5.84;92.45
51986;BME280;38002;53.296;6.600;2022-12-18T06:35:28;103178.19;;;-5.87;92.28
51986;BME280;38002;53.296;6.600;2022-12-18T06:40:28;103171.09;;;-5.88;92.64
51986;BME280;38002;53.296;6.600;2022-12-18T06:45:29;103160.47;;;-5.86;92.84
51986;BME280;38002;53.296;6.600;2022-12-18T06:50:29;103157.84;;;-5.89;92.47
51986;BME280;38002;53.296;6.600;2022-12-18T06:55:30;103155.22;;;-5.92;92.43
51986;BME280;38002;53.296;6.600;2022-12-18T07:00:30;103148.13;;;-6.00;91.99
51986;BME280;38002;53.296;6.600;2022-12-18T07:05:31;103141.09;;;-6.01;92.61
51986;BME280;38002;53.296;6.600;2022-12-18T07:10:31;103141.06;;;-5.99;92.20
51986;BME280;38002;53.296;6.600;2022-12-18T07:15:31;103138.47;;;-6.05;92.40
51986;BME280;38002;53.296;6.600;2022-12-18T07:20:32;103131.41;;;-6.00;92.60
51986;BME280;38002;53.296;6.600;2022-12-18T07:25:34;103125.22;;;-5.96;92.70
51986;BME280;38002;53.296;6.600;2022-12-18T07:30:37;103119.91;;;-5.96;93.02
51986;BME280;38002;53.296;6.600;2022-12-18T07:35:37;103129.59;;;-5.95;92.76
51986;BME280;38002;53.296;6.600;2022-12-18T07:40:38;103123.41;;;-5.94;92.75
51986;BME280;38002;53.296;6.600;2022-12-18T07:45:38;103126.06;;;-5.92;92.80
51986;BME280;38002;53.296;6.600;2022-12-18T07:50:39;103128.72;;;-5.94;92.40
51986;BME280;38002;53.296;6.600;2022-12-18T07:55:43;103137.56;;;-5.92;92.89
51986;BME280;38002;53.296;6.600;2022-12-18T08:00:43;103141.09;;;-5.87;93.07
51986;BME280;38002;53.296;6.600;2022-12-18T08:05:44;103140.16;;;-5.84;92.97
51986;BME280;38002;53.296;6.600;2022-12-18T08:10:44;103141.91;;;-5.80;92.79
51986;BME280;38002;53.296;6.600;2022-12-18T08:15:44;103140.16;;;-5.78;93.21
51986;BME280;38002;53.296;6.600;2022-12-18T08:20:45;103130.41;;;-5.78;93.11
51986;BME280;38002;53.296;6.600;2022-12-18T08:25:45;103135.72;;;-5.78;92.86
51986;BME280;38002;53.296;6.600;2022-12-18T08:30:46;103136.59;;;-5.77;92.60
51986;BME280;38002;53.296;6.600;2022-12-18T08:35:46;103124.22;;;-5.72;93.21
51986;BME280;38002;53.296;6.600;2022-12-18T08:40:47;103128.63;;;-5.68;93.60
51986;BME280;38002;53.296;6.600;2022-12-18T08:45:47;103140.13;;;-5.62;93.12
51986;BME280;38002;53.296;6.600;2022-12-18T08:50:57;103141.88;;;-5.58;93.26
51986;BME280;38002;53.296;6.600;2022-12-18T08:55:58;103155.13;;;-5.53;93.55
51986;BME280;38002;53.296;6.600;2022-12-18T09:01:03;103164.81;;;-5.51;92.74
51986;BME280;38002;53.296;6.600;2022-12-18T09:06:04;103156.84;;;-5.44;93.16
51986;BME280;38002;53.296;6.600;2022-12-18T09:11:12;103170.09;;;-5.35;93.15
51986;BME280;38002;53.296;6.600;2022-12-18T09:16:13;103153.25;;;-5.25;93.17
51986;BME280;38002;53.296;6.600;2022-12-18T09:21:15;103148.78;;;-5.13;93.43
51986;BME280;38002;53.296;6.600;2022-12-18T09:26:16;103154.91;;;-5.03;93.49
51986;BME280;38002;53.296;6.600;2022-12-18T09:31:19;103152.22;;;-4.88;93.37
51986;BME280;38002;53.296;6.600;2022-12-18T09:36:20;103133.53;;;-4.73;93.68
51986;BME280;38002;53.296;6.600;2022-12-18T09:41:44;103123.72;;;-4.60;93.54
51986;BME280;38002;53.296;6.600;2022-12-18T09:46:51;103120.13;;;-4.50;93.58
51986;BME280;38002;53.296;6.600;2022-12-18T09:52:08;103131.56;;;-4.40;93.45
51986;BME280;38002;53.296;6.600;2022-12-18T09:57:22;103110.25;;;-4.34;93.29
51986;BME280;38002;53.296;6.600;2022-12-18T10:02:24;103115.47;;;-4.25;92.94
51986;BME280;38002;53.296;6.600;2022-12-18T10:07:28;103102.13;;;-4.18;93.00
51986;BME280;38002;53.296;6.600;2022-12-18T10:12:42;103106.53;;;-4.12;92.70
51986;BME280;38002;53.296;6.600;2022-12-18T10:28:14;103097.13;;;-3.59;93.55
51986;BME280;38002;53.296;6.600;2022-12-18T10:33:17;103104.03;;;-3.45;93.31
51986;BME280;38002;53.296;6.600;2022-12-18T10:43:39;103065.72;;;-3.29;92.49
51986;BME280;38002;53.296;6.600;2022-12-18T10:48:59;103053.22;;;-3.22;92.88
51986;BME280;38002;53.296;6.600;2022-12-18T10:54:04;103056.69;;;-3.15;92.42
51986;BME280;38002;53.296;6.600;2022-12-18T10:59:11;103028.25;;;-3.13;92.32
51986;BME280;38002;53.296;6.600;2022-12-18T11:04:20;103033.50;;;-3.09;92.22
51986;BME280;38002;53.296;6.600;2022-12-18T11:09:40;103022.78;;;-3.03;92.22
51986;BME280;38002;53.296;6.600;2022-12-18T11:14:54;103017.34;;;-2.97;92.49
51986;BME280;38002;53.296;6.600;2022-12-18T11:20:23;103016.41;;;-2.93;92.52
51986;BME280;38002;53.296;6.600;2022-12-18T11:25:26;103009.28;;;-2.89;92.39
51986;BME280;38002;53.296;6.600;2022-12-18T11:30:35;103002.97;;;-2.84;92.31
51986;BME280;38002;53.296;6.600;2022-12-18T11:35:49;103002.00;;;-2.80;92.38
51986;BME280;38002;53.296;6.600;2022-12-18T11:40:57;103001.91;;;-2.73;92.24
51986;BME280;38002;53.296;6.600;2022-12-18T11:46:05;103011.56;;;-2.66;92.58
51986;BME280;38002;53.296;6.600;2022-12-18T11:51:13;103001.66;;;-2.58;92.38
51986;BME280;38002;53.296;6.600;2022-12-18T11:56:39;102965.22;;;-2.55;91.87
51986;BME280;38002;53.296;6.600;2022-12-18T12:01:50;102956.25;;;-2.51;92.56
51986;BME280;38002;53.296;6.600;2022-12-18T12:12:24;102935.72;;;-2.44;91.87
51986;BME280;38002;53.296;6.600;2022-12-18T12:17:51;102921.41;;;-2.39;92.19
51986;BME280;38002;53.296;6.600;2022-12-18T12:28:52;102918.56;;;-2.30;91.75
51986;BME280;38002;53.296;6.600;2022-12-18T12:34:01;102901.63;;;-2.27;91.81
51986;BME280;38002;53.296;6.600;2022-12-18T12:39:10;102877.59;;;-2.24;91.82
51986;BME280;38002;53.296;6.600;2022-12-18T12:44:17;102876.59;;;-2.20;91.62
51986;BME280;38002;53.296;6.600;2022-12-18T12:49:21;102859.63;;;-2.14;91.42
51986;BME280;38002;53.296;6.600;2022-12-18T12:54:24;102852.44;;;-2.11;91.42
51986;BME280;38002;53.296;6.600;2022-12-18T13:05:01;102840.75;;;-2.04;90.87
51986;BME280;38002;53.296;6.600;2022-12-18T13:15:42;102822.78;;;-1.94;90.61
51986;BME280;38002;53.296;6.600;2022-12-18T13:25:44;102818.88;;;-1.79;91.05
51986;BME280;38002;53.296;6.600;2022-12-18T13:30:49;102802.75;;;-1.73;91.07
51986;BME280;38002;53.296;6.600;2022-12-18T13:51:23;102786.56;;;-1.67;90.45
51986;BME280;38002;53.296;6.600;2022-12-18T13:56:26;102786.56;;;-1.67;90.72
51986;BME280;38002;53.296;6.600;2022-12-18T14:01:27;102772.41;;;-1.69;90.24
51986;BME280;38002;53.296;6.600;2022-12-18T14:06:28;102762.56;;;-1.67;89.94
51986;BME280;38002;53.296;6.600;2022-12-18T14:11:29;102762.63;;;-1.69;90.34
51986;BME280;38002;53.296;6.600;2022-12-18T14:16:29;102757.28;;;-1.69;89.75
51986;BME280;38002;53.296;6.600;2022-12-18T14:21:30;102765.34;;;-1.72;89.70
51986;BME280;38002;53.296;6.600;2022-12-18T14:26:34;102762.75;;;-1.73;89.82
51986;BME280;38002;53.296;6.600;2022-12-18T14:31:34;102745.97;;;-1.78;89.27
51986;BME280;38002;53.296;6.600;2022-12-18T14:36:35;102738.09;;;-1.85;90.00
51986;BME280;38002;53.296;6.600;2022-12-18T14:41:35;102739.91;;;-1.85;90.38
51986;BME280;38002;53.296;6.600;2022-12-18T14:51:38;102713.50;;;-1.96;89.16
51986;BME280;38002;53.296;6.600;2022-12-18T14:56:45;102716.31;;;-2.02;89.59
51986;BME280;38002;53.296;6.600;2022-12-18T15:07:14;102707.63;;;-2.10;90.08
51986;BME280;38002;53.296;6.600;2022-12-18T15:12:28;102708.63;;;-2.15;90.21
51986;BME280;38002;53.296;6.600;2022-12-18T15:17:33;102714.97;;;-2.19;89.92
51986;BME280;38002;53.296;6.600;2022-12-18T15:22:35;102693.75;;;-2.24;90.33
51986;BME280;38002;53.296;6.600;2022-12-18T15:27:36;102684.06;;;-2.28;90.69
51986;BME280;38002;53.296;6.600;2022-12-18T15:32:39;102685.06;;;-2.32;90.18
51986;BME280;38002;53.296;6.600;2022-12-18T15:37:40;102669.25;;;-2.38;90.52
51986;BME280;38002;53.296;6.600;2022-12-18T15:42:43;102656.03;;;-2.43;90.06
51986;BME280;38002;53.296;6.600;2022-12-18T15:48:21;102631.25;;;-2.46;90.58
51986;BME280;38002;53.296;6.600;2022-12-18T15:53:24;102626.84;;;-2.47;90.29
51986;BME280;38002;53.296;6.600;2022-12-18T15:58:25;102592.28;;;-2.50;90.57
51986;BME280;38002;53.296;6.600;2022-12-18T16:03:26;102575.47;;;-2.52;90.93
51986;BME280;38002;53.296;6.600;2022-12-18T16:08:26;102569.22;;;-2.51;90.74
51986;BME280;38002;53.296;6.600;2022-12-18T16:13:27;102567.50;;;-2.54;90.97
51986;BME280;38002;53.296;6.600;2022-12-18T16:18:27;102567.44;;;-2.51;90.66
51986;BME280;38002;53.296;6.600;2022-12-18T16:23:28;102547.88;;;-2.50;90.85
51986;BME280;38002;53.296;6.600;2022-12-18T16:28:28;102547.88;;;-2.50;90.91
51986;BME280;38002;53.296;6.600;2022-12-18T16:33:29;102553.16;;;-2.48;90.92
51986;BME280;38002;53.296;6.600;2022-12-18T16:38:29;102559.34;;;-2.46;90.68
51986;BME280;38002;53.296;6.600;2022-12-18T16:43:29;102565.50;;;-2.44;90.74
51986;BME280;38002;53.296;6.600;2022-12-18T16:48:30;102545.91;;;-2.42;91.25
51986;BME280;38002;53.296;6.600;2022-12-18T16:53:32;102533.41;;;-2.38;90.71
51986;BME280;38002;53.296;6.600;2022-12-18T16:58:33;102539.47;;;-2.33;90.72
51986;BME280;38002;53.296;6.600;2022-12-18T17:03:34;102532.28;;;-2.30;90.41
51986;BME280;38002;53.296;6.600;2022-12-18T17:08:34;102517.91;;;-2.24;90.45
51986;BME280;38002;53.296;6.600;2022-12-18T17:13:35;102512.53;;;-2.21;90.64
51986;BME280;38002;53.296;6.600;2022-12-18T17:18:35;102508.00;;;-2.19;90.91
51986;BME280;38002;53.296;6.600;2022-12-18T17:23:36;102489.31;;;-2.16;90.06
51986;BME280;38002;53.296;6.600;2022-12-18T17:28:38;102491.88;;;-2.13;90.38
51986;BME280;38002;53.296;6.600;2022-12-18T17:33:40;102486.44;;;-2.10;90.92
51986;BME280;38002;53.296;6.600;2022-12-18T17:38:40;102472.13;;;-2.06;90.40
51986;BME280;38002;53.296;6.600;2022-12-18T17:43:41;102465.84;;;-2.03;90.63
51986;BME280;38002;53.296;6.600;2022-12-18T17:48:45;102440.00;;;-2.01;89.37
51986;BME280;38002;53.296;6.600;2022-12-18T17:53:45;102457.63;;;-1.96;90.50
51986;BME280;38002;53.296;6.600;2022-12-18T17:58:46;102453.09;;;-1.92;90.02
51986;BME280;38002;53.296;6.600;2022-12-18T18:03:47;102464.53;;;-1.89;89.71
51986;BME280;38002;53.296;6.600;2022-12-18T18:08:48;102452.06;;;-1.88;88.63
51986;BME280;38002;53.296;6.600;2022-12-18T18:13:49;102449.28;;;-1.84;88.97
51986;BME280;38002;53.296;6.600;2022-12-18T18:19:03;102444.72;;;-1.80;88.70
51986;BME280;38002;53.296;6.600;2022-12-18T18:24:05;102446.38;;;-1.76;89.18
51986;BME280;38002;53.296;6.600;2022-12-18T18:29:07;102439.16;;;-1.72;89.11
51986;BME280;38002;53.296;6.600;2022-12-18T18:34:13;102401.78;;;-1.71;89.27
51986;BME280;38002;53.296;6.600;2022-12-18T18:39:14;102395.53;;;-1.68;89.60
51986;BME280;38002;53.296;6.600;2022-12-18T18:44:16;102400.84;;;-1.68;89.06
51986;BME280;38002;53.296;6.600;2022-12-18T18:49:16;102428.31;;;-1.66;88.32
51986;BME280;38002;53.296;6.600;2022-12-18T18:54:17;102413.16;;;-1.64;89.17
51986;BME280;38002;53.296;6.600;2022-12-18T18:59:18;102410.44;;;-1.63;88.80
51986;BME280;38002;53.296;6.600;2022-12-18T19:04:18;102400.66;;;-1.62;87.04
51986;BME280;38002;53.296;6.600;2022-12-18T19:09:18;102415.63;;;-1.58;88.80
51986;BME280;38002;53.296;6.600;2022-12-18T19:14:19;102395.13;;;-1.56;88.35
51986;BME280;38002;53.296;6.600;2022-12-18T19:19:19;102401.28;;;-1.54;87.67
51986;BME280;38002;53.296;6.600;2022-12-18T19:24:21;102395.75;;;-1.48;87.70
51986;BME280;38002;53.296;6.600;2022-12-18T19:29:21;102401.91;;;-1.46;88.15
51986;BME280;38002;53.296;6.600;2022-12-18T19:34:22;102383.25;;;-1.46;88.27
51986;BME280;38002;53.296;6.600;2022-12-18T19:39:25;102399.22;;;-1.45;88.06
51986;BME280;38002;53.296;6.600;2022-12-18T19:44:25;102400.09;;;-1.44;88.18
51986;BME280;38002;53.296;6.600;2022-12-18T19:49:25;102402.72;;;-1.43;87.60
51986;BME280;38002;53.296;6.600;2022-12-18T19:54:26;102387.47;;;-1.39;87.61
51986;BME280;38002;53.296;6.600;2022-12-18T19:59:27;102374.91;;;-1.35;88.06
51986;BME280;38002;53.296;6.600;2022-12-18T20:04:30;102364.19;;;-1.34;86.81
51986;BME280;38002;53.296;6.600;2022-12-18T20:09:31;102348.13;;;-1.32;87.67
51986;BME280;38002;53.296;6.600;2022-12-18T20:14:31;102349.75;;;-1.28;87.20
51986;BME280;38002;53.296;6.600;2022-12-18T20:19:32;102341.72;;;-1.27;87.91
51986;BME280;38002;53.296;6.600;2022-12-18T20:24:32;102348.75;;;-1.24;87.88
51986;BME280;38002;53.296;6.600;2022-12-18T20:29:33;102333.59;;;-1.24;87.05
51986;BME280;38002;53.296;6.600;2022-12-18T20:34:33;102350.38;;;-1.20;87.11
51986;BME280;38002;53.296;6.600;2022-12-18T20:39:34;102343.16;;;-1.17;87.50
51986;BME280;38002;53.296;6.600;2022-12-18T20:44:34;102328.84;;;-1.14;86.85
51986;BME280;38002;53.296;6.600;2022-12-18T20:49:35;102331.47;;;-1.13;86.30
51986;BME280;38002;53.296;6.600;2022-12-18T20:54:35;102324.16;;;-1.08;87.65
51986;BME280;38002;53.296;6.600;2022-12-18T20:59:35;102323.16;;;-1.04;87.47
51986;BME280;38002;53.296;6.600;2022-12-18T21:04:36;102315.84;;;-0.99;87.49
51986;BME280;38002;53.296;6.600;2022-12-18T21:09:36;102308.53;;;-0.94;86.80
51986;BME280;38002;53.296;6.600;2022-12-18T21:14:37;102303.97;;;-0.90;88.10
51986;BME280;38002;53.296;6.600;2022-12-18T21:19:37;102307.34;;;-0.85;88.67
51986;BME280;38002;53.296;6.600;2022-12-18T21:24:38;102298.38;;;-0.82;86.98
51986;BME280;38002;53.296;6.600;2022-12-18T21:29:38;102295.44;;;-0.75;87.20
51986;BME280;38002;53.296;6.600;2022-12-18T21:34:40;102274.81;;;-0.71;86.53
51986;BME280;38002;53.296;6.600;2022-12-18T21:39:40;102265.75;;;-0.67;87.19
51986;BME280;38002;53.296;6.600;2022-12-18T21:44:41;102265.63;;;-0.64;86.04
51986;BME280;38002;53.296;6.600;2022-12-18T21:49:41;102255.84;;;-0.64;86.77
51986;BME280;38002;53.296;6.600;2022-12-18T21:54:42;102256.53;;;-0.59;86.92
51986;BME280;38002;53.296;6.600;2022-12-18T21:59:42;102247.44;;;-0.53;86.46
51986;BME280;38002;53.296;6.600;2022-12-18T22:04:43;102249.19;;;-0.52;85.91
51986;BME280;38002;53.296;6.600;2022-12-18T22:09:45;102251.69;;;-0.48;86.39
51986;BME280;38002;53.296;6.600;2022-12-18T22:14:46;102242.63;;;-0.43;87.22
51986;BME280;38002;53.296;6.600;2022-12-18T22:19:46;102245.13;;;-0.39;86.75
51986;BME280;38002;53.296;6.600;2022-12-18T22:24:47;102234.31;;;-0.36;85.58
51986;BME280;38002;53.296;6.600;2022-12-18T22:29:47;102230.44;;;-0.29;85.79
51986;BME280;38002;53.296;6.600;2022-12-18T22:35:04;102210.69;;;-0.25;87.28
51986;BME280;38002;53.296;6.600;2022-12-18T22:40:05;102208.72;;;-0.20;87.66
51986;BME280;38002;53.296;6.600;2022-12-18T22:45:06;102204.97;;;-0.16;87.52
51986;BME280;38002;53.296;6.600;2022-12-18T22:50:08;102199.50;;;-0.13;87.85
51986;BME280;38002;53.296;6.600;2022-12-18T22:55:09;102192.31;;;-0.11;88.18
51986;BME280;38002;53.296;6.600;2022-12-18T23:00:10;102190.50;;;-0.10;88.55
51986;BME280;38002;53.296;6.600;2022-12-18T23:05:10;102185.97;;;-0.08;88.93
51986;BME280;38002;53.296;6.600;2022-12-18T23:10:10;102170.78;;;-0.08;89.55
51986;BME280;38002;53.296;6.600;2022-12-18T23:15:11;102160.19;;;-0.09;90.49
51986;BME280;38002;53.296;6.600;2022-12-18T23:20:11;102145.84;;;-0.08;90.81
51986;BME280;38002;53.296;6.600;2022-12-18T23:25:12;102131.63;;;-0.09;90.55
51986;BME280;38002;53.296;6.600;2022-12-18T23:30:13;102122.69;;;-0.08;90.41
51986;BME280;38002;53.296;6.600;2022-12-18T23:35:14;102113.72;;;-0.07;90.60
51986;BME280;38002;53.296;6.600;2022-12-18T23:40:15;102110.19;;;-0.07;91.17
51986;BME280;38002;53.296;6.600;2022-12-18T23:45:15;102111.97;;;-0.08;91.31
51986;BME280;38002;53.296;6.600;2022-12-18T23:50:16;102111.97;;;-0.08;91.31
51986;BME280;38002;53.296;6.600;2022-12-18T23:55:16;102106.63;;;-0.08;91.65
